createdAt,value
2023-02-08T09:36:31.407Z,25.00
2023-02-08T09:39:03.082Z,24.13
2023-02-08T09:41:58.954Z,27.30
2023-02-08T09:50:59.703Z,24.45
2023-02-08T09:53:36.767Z,25.45
2023-02-08T11:43:12.944Z,22.55
2023-02-08T11:50:21.030Z,17.17
2023-02-08T12:57:00.365Z,12.07
2023-02-08T15:16:58.051Z,13.15
2023-02-08T15:19:27.011Z,13.13
2023-02-08T15:21:54.314Z,13.15
2023-02-08T15:27:34.612Z,11.25
2023-02-08T16:25:26.697Z,17.58
2023-02-08T16:28:06.561Z,17.08
2023-02-08T16:31:16.369Z,14.70
2023-02-08T16:34:02.380Z,16.55
2023-02-08T16:36:32.570Z,17.63
2023-02-08T16:39:20.010Z,17.35
2023-02-08T16:45:14.586Z,18.08
2023-02-08T16:47:46.656Z,20.73
2023-02-08T16:53:05.546Z,21.38
2023-02-08T16:56:23.032Z,20.35
2023-02-08T16:58:28.762Z,20.90
2023-02-08T17:01:04.893Z,21.33
2023-02-08T17:06:29.593Z,22.23
2023-02-08T17:08:57.278Z,20.08
2023-02-08T17:11:29.415Z,19.55
2023-02-08T17:14:32.559Z,21.02
2023-02-08T17:16:59.799Z,25.10
2023-02-08T17:19:32.735Z,24.05
2023-02-08T17:22:17.998Z,22.60
2023-02-08T17:24:47.208Z,21.70
2023-02-08T17:30:05.150Z,25.30
2023-02-08T17:32:37.807Z,25.77
2023-02-08T17:35:49.122Z,25.50
2023-02-08T17:38:16.829Z,25.55
2023-02-08T17:40:50.288Z,25.55
2023-02-08T17:43:25.934Z,25.05
2023-02-08T17:45:57.912Z,25.05
2023-02-08T17:48:26.006Z,22.98
2023-02-08T17:51:11.798Z,23.70
2023-02-08T17:53:45.307Z,26.02
2023-02-08T18:00:06.241Z,26.63
2023-02-08T18:02:36.933Z,27.52
2023-02-08T18:11:23.347Z,25.77
2023-02-08T18:13:56.936Z,24.80
2023-02-08T18:26:04.171Z,32.25
2023-02-08T18:31:24.063Z,32.13
2023-02-08T18:33:51.529Z,28.95
2023-02-08T18:36:29.416Z,29.98
2023-02-08T18:38:57.061Z,29.02
2023-02-08T18:41:26.957Z,28.88
2023-02-08T19:38:01.292Z,29.73
2023-02-08T19:54:17.713Z,32.92
2023-02-08T19:56:43.582Z,33.15
2023-02-08T19:59:42.837Z,34.90
2023-02-08T20:02:15.691Z,32.35
2023-02-08T20:04:42.656Z,33.35
2023-02-08T20:07:21.633Z,31.88
2023-02-08T20:09:48.741Z,32.13
2023-02-08T20:12:16.940Z,33.38
2023-02-08T20:14:57.591Z,35.17
2023-02-08T20:19:52.755Z,31.30
2023-02-08T20:22:19.359Z,35.38
2023-02-08T20:24:48.705Z,31.92
2023-02-08T20:27:15.299Z,35.30
2023-02-08T20:29:47.161Z,33.13
2023-02-08T20:32:13.832Z,31.45
2023-02-08T20:34:47.444Z,31.73
2023-02-08T20:37:22.947Z,34.78
2023-02-08T20:39:52.058Z,34.30
2023-02-08T20:42:18.469Z,36.70
2023-02-08T20:44:50.475Z,34.03
2023-02-08T20:47:21.687Z,32.88
2023-02-08T20:49:48.754Z,35.30
2023-02-08T20:52:15.918Z,35.95
2023-02-08T20:54:47.022Z,34.05
2023-02-08T20:57:24.408Z,34.97
2023-02-08T21:02:31.950Z,30.70
2023-02-08T21:04:58.490Z,33.58
2023-02-08T21:07:27.661Z,33.38
2023-02-08T21:09:58.391Z,32.38
2023-02-08T21:12:26.163Z,28.83
2023-02-08T21:14:52.898Z,33.70
2023-02-08T21:17:19.500Z,35.78
2023-02-08T21:19:50.348Z,36.08
2023-02-08T21:22:17.193Z,32.00
2023-02-08T21:24:43.730Z,30.55
2023-02-08T21:27:10.352Z,32.60
2023-02-08T21:29:47.412Z,29.98
2023-02-08T21:32:13.904Z,34.67
2023-02-08T21:34:51.299Z,31.20
2023-02-08T21:37:17.879Z,30.88
2023-02-08T21:39:46.514Z,35.17
2023-02-08T21:42:26.194Z,32.20
2023-02-08T21:44:58.663Z,35.33
2023-02-08T21:47:26.278Z,34.08
2023-02-08T21:50:11.135Z,34.85
2023-02-08T21:52:56.336Z,31.80
2023-02-08T21:55:22.832Z,35.00
2023-02-08T21:57:52.626Z,32.90
2023-02-08T22:00:22.186Z,34.88
2023-02-08T22:02:48.634Z,33.33
2023-02-08T22:05:37.082Z,31.48
2023-02-08T22:08:03.920Z,32.95
2023-02-08T22:10:31.648Z,30.95
2023-02-08T22:12:58.285Z,37.40
2023-02-08T22:15:30.611Z,34.58
2023-02-08T22:18:00.562Z,34.60
2023-02-08T22:20:27.027Z,34.22
2023-02-08T22:22:55.253Z,31.35
2023-02-08T22:25:25.202Z,28.90
2023-02-08T22:27:52.078Z,30.92
2023-02-08T22:30:19.952Z,28.95
2023-02-08T22:32:48.028Z,28.67
2023-02-08T22:35:15.562Z,27.90
2023-02-08T22:37:41.998Z,26.48
2023-02-08T22:40:09.733Z,26.38
2023-02-08T22:42:36.290Z,26.90
2023-02-08T22:45:02.755Z,28.85
2023-02-08T22:47:29.219Z,32.85
2023-02-08T22:50:00.838Z,25.58
2023-02-08T22:52:27.535Z,26.40
2023-02-08T22:54:53.988Z,26.92
2023-02-08T22:57:20.500Z,25.70
2023-02-08T22:59:47.697Z,30.55
2023-02-08T23:02:17.206Z,26.83
2023-02-08T23:04:43.634Z,24.15
2023-02-08T23:07:10.167Z,26.58
2023-02-08T23:09:36.637Z,23.70
2023-02-08T23:12:03.195Z,24.88
2023-02-08T23:14:39.823Z,23.10
2023-02-08T23:17:08.221Z,23.30
2023-02-08T23:19:35.786Z,23.70
2023-02-08T23:22:03.507Z,21.38
2023-02-08T23:24:29.977Z,20.98
2023-02-08T23:26:56.499Z,26.38
2023-02-08T23:29:22.947Z,22.80
2023-02-08T23:31:49.611Z,24.63
2023-02-08T23:34:16.174Z,22.50
2023-02-08T23:36:42.674Z,23.10
2023-02-08T23:39:09.144Z,21.48
2023-02-08T23:41:35.725Z,21.58
2023-02-08T23:44:02.290Z,20.83
2023-02-08T23:46:29.419Z,21.63
2023-02-08T23:48:55.904Z,22.95
2023-02-08T23:51:23.542Z,20.55
2023-02-08T23:53:50.404Z,20.15
2023-02-08T23:56:20.013Z,22.60
2023-02-08T23:58:47.769Z,19.83
